• Join FlightAware (Why Join?)
  • Login
  • US Flag 
02:24PM EDT


 

Airport Tracker/Info


-or-


 

Live Flight TrackerFlight Track Log ✈ EJA831 ✈ 29-Apr-2014 ✈ KUDD - KSFO

Flight Track Log - Related Links

Times and Time Zones

All times are in EDT time to prevent confusion due to time zone crossing. See the EJA831 flight status page for this flight to view local times or setup timezone preferences in your user account.

Time Position Orientation Groundspeed Altitude Reporting Facility
EDT Latitude Longitude Course Direction KTS MPH feet Rate Location/Type
05:12PM 33.7500 -116.3000 129° Southeast 160 184 1,400  Level Southern California TRACON
05:13PM 33.7167 -116.2500 129° Southeast 225 259 4,800 3,240 Climbing Southern California TRACON
05:14PM 33.7703 -116.2303 17° North 232 267 8,700 2,100 Climbing Los Angeles Center
05:15PM 33.8336 -116.2647 336° Northwest 246 283 9,600 1,980 Climbing Los Angeles Center
05:16PM 33.8908 -116.3178 322° Northwest 257 296 12,900 3,000 Climbing Los Angeles Center
05:17PM 33.9639 -116.3847 323° Northwest 269 310 15,900 2,460 Climbing Los Angeles Center
05:18PM 34.0261 -116.4458 321° Northwest 282 325 18,100 1,980 Climbing Los Angeles Center
05:19PM 34.0925 -116.5086 322° Northwest 298 343 20,100 1,980 Climbing Los Angeles Center
05:20PM 34.1750 -116.5483 338° Northwest 316 364 22,200 1,980 Climbing Los Angeles Center
05:21PM 34.2536 -116.5997 332° Northwest 338 389 24,200 1,920 Climbing Los Angeles Center
05:22PM 34.2731 -116.7081 282° West 335 386 26,200 1,920 Climbing Los Angeles Center
05:23PM 34.2867 -116.8192 278° West 335 386 28,200 1,920 Climbing Los Angeles Center
05:24PM 34.3022 -116.9525 278° West 335 386 30,200 1,680 Climbing Los Angeles Center
05:25PM 34.3150 -117.0650 278° West 335 386 31,700 1,380 Climbing Los Angeles Center
05:26PM 34.3289 -117.1775 279° West 338 389 33,100 1,080 Climbing Los Angeles Center
05:28PM 34.3403 -117.2883 277° West 338 389 34,000 420 Climbing Los Angeles Center
05:29PM 34.3575 -117.4356 278° West 367 422 34,000  Level Los Angeles Center
05:30PM 34.3719 -117.5656 278° West 385 443 34,000  Level Los Angeles Center
05:31PM 34.3872 -117.7081 277° West 397 457 34,000  Level Los Angeles Center
05:32PM 34.4017 -117.8428 277° West 401 461 34,000  Level Los Angeles Center
05:33PM 34.4172 -117.9775 278° West 402 463 34,000  Level Los Angeles Center
05:34PM 34.4628 -118.0981 295° West 403 464 34,000  Level Los Angeles Center
05:35PM 34.5311 -118.2208 304° West 397 457 34,000  Level Los Angeles Center
05:36PM 34.5933 -118.3308 305° West 398 458 34,000  Level Los Angeles Center
05:37PM 34.6478 -118.4328 303° West 398 458 34,000  Level Los Angeles Center
05:38PM 34.7136 -118.5511 304° West 394 453 34,000  Level Los Angeles Center
05:39PM 34.7744 -118.6600 304° West 392 451 34,000  Level Los Angeles Center
05:40PM 34.8453 -118.7894 304° West 389 448 34,000  Level Los Angeles Center
05:41PM 34.9094 -118.9044 304° West 395 455 34,000  Level Los Angeles Center
05:42PM 34.9694 -119.0175 303° West 397 457 34,000  Level Los Angeles Center
05:43PM 35.0303 -119.1256 305° West 392 451 34,000  Level Los Angeles Center
05:44PM 35.0894 -119.2328 304° West 383 441 34,000  Level Los Angeles Center
05:45PM 35.1492 -119.3444 303° West 387 445 34,000  Level Los Angeles Center
05:46PM 35.2200 -119.4742 304° West 384 442 34,000  Level Los Angeles Center
05:47PM 35.2794 -119.5844 303° West 386 444 34,000  Level Los Angeles Center
05:48PM 35.3383 -119.6936 303° West 388 447 34,000  Level Los Angeles Center
05:49PM 35.3964 -119.8031 303° West 385 443 34,000  Level Los Angeles Center
05:50PM 35.4553 -119.9119 304° West 384 442 34,000  Level Los Angeles Center
05:51PM 35.5253 -120.0444 303° West 385 443 34,000  Level Los Angeles Center
05:52PM 35.5733 -120.1350 303° West 386 444 34,000  Level Los Angeles Center
05:53PM 35.6436 -120.2681 303° West 386 444 34,000  Level Los Angeles Center
05:54PM 35.6961 -120.3758 301° West 388 447 34,000  Level Los Angeles Center
05:55PM 35.7406 -120.4931 295° West 387 445 34,000  Level Los Angeles Center
05:56PM 35.7694 -120.6464 283° West 388 447 34,000  Level Los Angeles Center
05:58PM 35.7883 -120.7758 280° West 388 447 34,000  Level Los Angeles Center
05:59PM 35.8078 -120.9053 281° West 387 445 34,000  Level Los Angeles Center
06:00PM 35.8494 -121.0256 293° West 388 447 34,000  Level Los Angeles Center
06:01PM 35.9467 -121.1653 311° West 385 443 34,000 -480 Level Oakland Center
06:02PM 36.0333 -121.2467 323° Northwest 384 442 32,900 -1,680 Descending Oakland Center
06:03PM 36.1342 -121.3469 321° Northwest 385 443 30,600 -2,100 Descending Oakland Center
06:04PM 36.2239 -121.4356 321° Northwest 407 468 28,700 -1,920 Descending Oakland Center
06:05PM 36.3131 -121.5244 321° Northwest 408 470 26,800 -1,860 Descending Oakland Center
06:06PM 36.3997 -121.6125 321° Northwest 405 466 24,900 -1,920 Descending Oakland Center
06:07PM 36.4825 -121.6944 321° Northwest 382 440 22,900 -1,920 Descending Oakland Center
06:08PM 36.5611 -121.7764 320° Northwest 368 423 21,000 -1,860 Descending Oakland Center
06:09PM 36.6428 -121.8597 321° Northwest 365 420 19,200 -1,620 Descending Oakland Center
06:10PM 36.7206 -121.9394 321° Northwest 360 414 17,800 -1,560 Descending Oakland Center
06:11PM 36.8117 -121.9831 339° North 346 398 16,100 -1,740 Descending Oakland Center
06:12PM 36.9078 -122.0094 348° North 351 404 14,300 -1,740 Descending Oakland Center
06:13PM 36.9997 -122.0322 349° North 340 391 12,600 -1,860 Descending Oakland Center
06:14PM 37.1078 -122.0617 348° North 332 382 10,600 -1,380 Descending Oakland Center
06:15PM 37.1911 -122.0822 349° North 305 351 9,800 -1,080 Descending Oakland Center
06:16PM 37.2611 -122.1006 348° North 262 302 8,500 -1,320 Descending Oakland Center
06:17PM 37.3328 -122.1203 348° North 262 302 7,200 -1,380 Descending Oakland Center
06:18PM 37.3833 -122.1333 348° North 275 316 6,200 -1,080 Descending Northern Cal TRACON
06:19PM 37.4736 -122.1581 348° North 257 296 5,000 -1,140 Descending Oakland Center
06:20PM 37.5322 -122.1928 335° Northwest 240 276 3,600 -1,440 Descending Oakland Center
06:21PM 37.5700 -122.2578 306° West 237 273 2,100 -1,140 Descending Oakland Center
06:22PM 37.5950 -122.3075 302° West 192 221 1,300 -960 Descending Oakland Center
06:23PM 37.6119 -122.3531 295° West 145 167 200 -1,140 Descending Oakland Center
06:25PM 37.6167 -122.3667 322° Northwest  Level FlightAware Approximate
06:32PM 37.6191 -122.3752 322° Northwest  Level Estimated